sensor_id;sensor_type;location;lat;lon;timestamp;pressure;altitude;pressure_sealevel;temperature;humidity
85641;BME280;76065;47.182;27.506;2024-02-26T00:01:31;100288.94;;;9.03;87.20
85641;BME280;76065;47.182;27.506;2024-02-26T00:03:58;100289.47;;;9.05;86.94
85641;BME280;76065;47.182;27.506;2024-02-26T00:06:25;100283.63;;;8.98;87.13
85641;BME280;76065;47.182;27.506;2024-02-26T00:08:50;100290.84;;;9.03;86.92
85641;BME280;76065;47.182;27.506;2024-02-26T00:11:16;100294.38;;;8.98;86.52
85641;BME280;76065;47.182;27.506;2024-02-26T00:13:41;100275.13;;;8.86;87.00
85641;BME280;76065;47.182;27.506;2024-02-26T00:16:07;100298.94;;;8.98;86.94
85641;BME280;76065;47.182;27.506;2024-02-26T00:18:33;100294.13;;;8.95;86.86
85641;BME280;76065;47.182;27.506;2024-02-26T00:20:59;100302.13;;;9.00;86.65
85641;BME280;76065;47.182;27.506;2024-02-26T00:23:24;100291.72;;;8.93;86.76
85641;BME280;76065;47.182;27.506;2024-02-26T00:25:50;100292.50;;;8.93;86.46
85641;BME280;76065;47.182;27.506;2024-02-26T00:28:15;100284.72;;;8.92;86.62
85641;BME280;76065;47.182;27.506;2024-02-26T00:30:41;100294.41;;;8.93;86.72
85641;BME280;76065;47.182;27.506;2024-02-26T00:33:06;100301.31;;;8.99;86.78
85641;BME280;76065;47.182;27.506;2024-02-26T00:35:32;100282.03;;;8.92;86.96
85641;BME280;76065;47.182;27.506;2024-02-26T00:37:57;100286.84;;;8.95;86.78
85641;BME280;76065;47.182;27.506;2024-02-26T00:40:24;100286.34;;;8.93;86.99
85641;BME280;76065;47.182;27.506;2024-02-26T00:42:49;100278.56;;;8.91;87.25
85641;BME280;76065;47.182;27.506;2024-02-26T00:45:15;100283.13;;;8.91;87.06
85641;BME280;76065;47.182;27.506;2024-02-26T00:47:42;100284.66;;;9.02;87.17
85641;BME280;76065;47.182;27.506;2024-02-26T00:50:08;100274.19;;;9.01;87.17
85641;BME280;76065;47.182;27.506;2024-02-26T00:52:34;100280.88;;;9.03;87.16
85641;BME280;76065;47.182;27.506;2024-02-26T00:55:01;100280.09;;;9.03;87.25
85641;BME280;76065;47.182;27.506;2024-02-26T00:57:27;100264.31;;;8.91;87.36
85641;BME280;76065;47.182;27.506;2024-02-26T00:59:52;100277.16;;;8.99;87.32
85641;BME280;76065;47.182;27.506;2024-02-26T01:02:18;100279.31;;;8.97;87.28
85641;BME280;76065;47.182;27.506;2024-02-26T01:04:43;100268.91;;;8.90;87.41
85641;BME280;76065;47.182;27.506;2024-02-26T01:07:09;100282.53;;;8.99;87.60
85641;BME280;76065;47.182;27.506;2024-02-26T01:09:35;100273.69;;;8.99;87.38
85641;BME280;76065;47.182;27.506;2024-02-26T01:12:00;100262.16;;;8.93;87.37
85641;BME280;76065;47.182;27.506;2024-02-26T01:14:28;100272.31;;;9.01;87.52
85641;BME280;76065;47.182;27.506;2024-02-26T01:16:53;100273.91;;;9.02;87.39
85641;BME280;76065;47.182;27.506;2024-02-26T01:19:19;100266.47;;;8.94;87.23
85641;BME280;76065;47.182;27.506;2024-02-26T01:21:45;100268.63;;;8.92;87.33
85641;BME280;76065;47.182;27.506;2024-02-26T01:24:10;100255.47;;;8.90;87.32
85641;BME280;76065;47.182;27.506;2024-02-26T01:26:36;100258.41;;;8.94;87.18
85641;BME280;76065;47.182;27.506;2024-02-26T01:29:02;100268.03;;;8.95;87.44
85641;BME280;76065;47.182;27.506;2024-02-26T01:31:27;100257.88;;;8.92;87.34
85641;BME280;76065;47.182;27.506;2024-02-26T01:33:53;100244.47;;;8.87;87.30
85641;BME280;76065;47.182;27.506;2024-02-26T01:36:19;100253.34;;;8.87;87.62
85641;BME280;76065;47.182;27.506;2024-02-26T01:38:44;100249.81;;;8.92;87.42
85641;BME280;76065;47.182;27.506;2024-02-26T01:41:10;100235.38;;;8.83;87.62
85641;BME280;76065;47.182;27.506;2024-02-26T01:43:35;100251.41;;;8.93;87.34
85641;BME280;76065;47.182;27.506;2024-02-26T01:46:01;100254.38;;;8.91;87.33
85641;BME280;76065;47.182;27.506;2024-02-26T01:48:28;100262.66;;;8.95;87.20
85641;BME280;76065;47.182;27.506;2024-02-26T01:50:54;100265.09;;;8.97;87.42
85641;BME280;76065;47.182;27.506;2024-02-26T01:53:20;100254.09;;;8.93;87.53
85641;BME280;76065;47.182;27.506;2024-02-26T01:55:46;100250.88;;;8.91;87.53
85641;BME280;76065;47.182;27.506;2024-02-26T01:58:12;100245.56;;;8.86;87.74
85641;BME280;76065;47.182;27.506;2024-02-26T02:00:38;100245.34;;;8.82;87.21
85641;BME280;76065;47.182;27.506;2024-02-26T02:03:04;100242.38;;;8.79;87.18
85641;BME280;76065;47.182;27.506;2024-02-26T02:05:30;100251.53;;;8.78;87.01
85641;BME280;76065;47.182;27.506;2024-02-26T02:07:56;100246.78;;;8.70;87.08
85641;BME280;76065;47.182;27.506;2024-02-26T02:10:22;100237.44;;;8.62;87.64
85641;BME280;76065;47.182;27.506;2024-02-26T02:12:51;100259.38;;;8.69;87.44
85641;BME280;76065;47.182;27.506;2024-02-26T02:15:17;100243.56;;;8.63;87.24
85641;BME280;76065;47.182;27.506;2024-02-26T02:17:43;100262.06;;;8.69;87.53
85641;BME280;76065;47.182;27.506;2024-02-26T02:20:10;100254.84;;;8.65;87.78
85641;BME280;76065;47.182;27.506;2024-02-26T02:22:40;100259.94;;;8.66;87.58
85641;BME280;76065;47.182;27.506;2024-02-26T02:25:06;100264.47;;;8.71;87.69
85641;BME280;76065;47.182;27.506;2024-02-26T02:27:31;100263.38;;;8.72;87.71
85641;BME280;76065;47.182;27.506;2024-02-26T02:29:57;100258.31;;;8.70;87.42
85641;BME280;76065;47.182;27.506;2024-02-26T02:32:24;100262.78;;;8.80;87.68
85641;BME280;76065;47.182;27.506;2024-02-26T02:34:50;100268.69;;;8.82;87.45
85641;BME280;76065;47.182;27.506;2024-02-26T02:37:16;100270.59;;;8.81;86.67
85641;BME280;76065;47.182;27.506;2024-02-26T02:39:43;100263.03;;;8.83;87.16
85641;BME280;76065;47.182;27.506;2024-02-26T02:42:09;100251.31;;;8.74;86.77
85641;BME280;76065;47.182;27.506;2024-02-26T02:44:34;100255.88;;;8.74;86.98
85641;BME280;76065;47.182;27.506;2024-02-26T02:47:00;100266.31;;;8.75;86.50
85641;BME280;76065;47.182;27.506;2024-02-26T02:49:25;100258.81;;;8.72;86.16
85641;BME280;76065;47.182;27.506;2024-02-26T02:51:51;100269.84;;;8.71;86.28
85641;BME280;76065;47.182;27.506;2024-02-26T02:54:19;100273.31;;;8.71;86.36
85641;BME280;76065;47.182;27.506;2024-02-26T02:56:45;100278.16;;;8.74;86.01
85641;BME280;76065;47.182;27.506;2024-02-26T02:59:10;100275.16;;;8.76;85.87
85641;BME280;76065;47.182;27.506;2024-02-26T03:01:36;100266.63;;;8.69;85.83
85641;BME280;76065;47.182;27.506;2024-02-26T03:04:02;100258.09;;;8.62;86.00
85641;BME280;76065;47.182;27.506;2024-02-26T03:06:27;100269.84;;;8.71;85.76
85641;BME280;76065;47.182;27.506;2024-02-26T03:08:54;100267.16;;;8.71;85.74
85641;BME280;76065;47.182;27.506;2024-02-26T03:11:20;100270.94;;;8.70;85.86
85641;BME280;76065;47.182;27.506;2024-02-26T03:13:46;100272.00;;;8.69;85.16
85641;BME280;76065;47.182;27.506;2024-02-26T03:16:12;100264.53;;;8.61;84.90
85641;BME280;76065;47.182;27.506;2024-02-26T03:18:40;100254.94;;;8.50;85.12
85641;BME280;76065;47.182;27.506;2024-02-26T03:21:06;100267.00;;;8.52;84.69
85641;BME280;76065;47.182;27.506;2024-02-26T03:23:32;100254.97;;;8.44;84.85
85641;BME280;76065;47.182;27.506;2024-02-26T03:26:04;100253.69;;;8.37;84.97
85641;BME280;76065;47.182;27.506;2024-02-26T03:28:30;100195.63;;;8.02;84.42
85641;BME280;76065;47.182;27.506;2024-02-26T03:31:00;100254.25;;;8.34;84.67
85641;BME280;76065;47.182;27.506;2024-02-26T03:33:26;100247.81;;;8.30;84.59
85641;BME280;76065;47.182;27.506;2024-02-26T03:35:51;100247.00;;;8.34;84.35
85641;BME280;76065;47.182;27.506;2024-02-26T03:38:17;100260.91;;;8.41;84.42
85641;BME280;76065;47.182;27.506;2024-02-26T03:40:42;100256.63;;;8.35;84.52
85641;BME280;76065;47.182;27.506;2024-02-26T03:43:08;100267.63;;;8.39;84.46
85641;BME280;76065;47.182;27.506;2024-02-26T03:45:33;100258.22;;;8.41;84.41
85641;BME280;76065;47.182;27.506;2024-02-26T03:47:59;100267.34;;;8.40;84.10
85641;BME280;76065;47.182;27.506;2024-02-26T03:50:25;100271.94;;;8.35;84.81
85641;BME280;76065;47.182;27.506;2024-02-26T03:52:50;100264.69;;;8.35;84.40
85641;BME280;76065;47.182;27.506;2024-02-26T03:55:16;100262.53;;;8.27;84.14
85641;BME280;76065;47.182;27.506;2024-02-26T03:57:46;100279.97;;;8.35;84.20
85641;BME280;76065;47.182;27.506;2024-02-26T04:00:12;100278.94;;;8.31;83.45
85641;BME280;76065;47.182;27.506;2024-02-26T04:02:38;100283.75;;;8.34;83.48
85641;BME280;76065;47.182;27.506;2024-02-26T04:05:04;100280.53;;;8.32;83.63
85641;BME280;76065;47.182;27.506;2024-02-26T04:07:30;100283.75;;;8.34;83.42
85641;BME280;76065;47.182;27.506;2024-02-26T04:09:56;100281.34;;;8.32;83.49
85641;BME280;76065;47.182;27.506;2024-02-26T04:12:21;100263.66;;;8.21;83.39
85641;BME280;76065;47.182;27.506;2024-02-26T04:14:47;100278.41;;;8.19;83.87
85641;BME280;76065;47.182;27.506;2024-02-26T04:17:12;100289.94;;;8.24;83.30
85641;BME280;76065;47.182;27.506;2024-02-26T04:19:38;100243.94;;;7.87;83.90
85641;BME280;76065;47.182;27.506;2024-02-26T04:22:03;100288.91;;;8.15;83.53
85641;BME280;76065;47.182;27.506;2024-02-26T04:24:29;100298.56;;;8.16;84.00
85641;BME280;76065;47.182;27.506;2024-02-26T04:26:55;100279.53;;;8.13;83.13
85641;BME280;76065;47.182;27.506;2024-02-26T04:29:20;100290.00;;;8.14;83.13
85641;BME280;76065;47.182;27.506;2024-02-26T04:31:46;100283.53;;;8.15;83.50
85641;BME280;76065;47.182;27.506;2024-02-26T04:34:12;100282.72;;;8.20;83.03
85641;BME280;76065;47.182;27.506;2024-02-26T04:36:37;100277.09;;;8.16;82.59
85641;BME280;76065;47.182;27.506;2024-02-26T04:39:03;100286.19;;;8.25;82.23
85641;BME280;76065;47.182;27.506;2024-02-26T04:41:28;100280.03;;;8.30;82.38
85641;BME280;76065;47.182;27.506;2024-02-26T04:43:54;100283.47;;;8.35;82.12
85641;BME280;76065;47.182;27.506;2024-02-26T04:46:19;100286.16;;;8.35;82.07
85641;BME280;76065;47.182;27.506;2024-02-26T04:48:47;100286.44;;;8.34;81.44
85641;BME280;76065;47.182;27.506;2024-02-26T04:51:13;100285.63;;;8.28;82.11
85641;BME280;76065;47.182;27.506;2024-02-26T04:53:38;100280.66;;;7.96;83.42
85641;BME280;76065;47.182;27.506;2024-02-26T04:56:04;100286.59;;;7.78;83.52
85641;BME280;76065;47.182;27.506;2024-02-26T04:58:30;100284.25;;;7.46;84.38
85641;BME280;76065;47.182;27.506;2024-02-26T05:00:56;100298.22;;;7.33;85.96
85641;BME280;76065;47.182;27.506;2024-02-26T05:03:21;100297.13;;;7.34;85.59
85641;BME280;76065;47.182;27.506;2024-02-26T05:05:47;100301.69;;;7.44;85.69
85641;BME280;76065;47.182;27.506;2024-02-26T05:08:12;100283.19;;;7.42;84.31
85641;BME280;76065;47.182;27.506;2024-02-26T05:10:38;100292.03;;;7.53;84.28
85641;BME280;76065;47.182;27.506;2024-02-26T05:13:09;100298.72;;;7.50;84.55
85641;BME280;76065;47.182;27.506;2024-02-26T05:15:35;100303.03;;;7.62;83.83
85641;BME280;76065;47.182;27.506;2024-02-26T05:18:00;100292.56;;;7.60;83.79
85641;BME280;76065;47.182;27.506;2024-02-26T05:20:26;100303.78;;;7.67;83.49
85641;BME280;76065;47.182;27.506;2024-02-26T05:22:52;100304.59;;;7.73;82.68
85641;BME280;76065;47.182;27.506;2024-02-26T05:25:17;100252.09;;;7.46;82.37
85641;BME280;76065;47.182;27.506;2024-02-26T05:27:43;100319.53;;;7.99;81.66
85641;BME280;76065;47.182;27.506;2024-02-26T05:30:10;100317.63;;;8.10;80.76
85641;BME280;76065;47.182;27.506;2024-02-26T05:32:36;100250.44;;;7.76;80.26
85641;BME280;76065;47.182;27.506;2024-02-26T05:35:02;100310.84;;;8.27;79.50
85641;BME280;76065;47.182;27.506;2024-02-26T05:37:30;100305.22;;;8.24;79.52
85641;BME280;76065;47.182;27.506;2024-02-26T05:39:56;100297.00;;;7.95;80.40
85641;BME280;76065;47.182;27.506;2024-02-26T05:42:22;100307.22;;;7.93;81.05
85641;BME280;76065;47.182;27.506;2024-02-26T05:44:47;100311.84;;;7.77;81.03
85641;BME280;76065;47.182;27.506;2024-02-26T05:47:13;100322.56;;;7.77;81.77
85641;BME280;76065;47.182;27.506;2024-02-26T05:49:42;100331.91;;;7.80;81.19
85641;BME280;76065;47.182;27.506;2024-02-26T05:52:08;100326.56;;;7.75;81.51
85641;BME280;76065;47.182;27.506;2024-02-26T05:54:33;100330.84;;;7.71;81.89
85641;BME280;76065;47.182;27.506;2024-02-26T05:56:59;100324.44;;;7.67;82.01
85641;BME280;76065;47.182;27.506;2024-02-26T05:59:25;100329.78;;;7.72;81.94
85641;BME280;76065;47.182;27.506;2024-02-26T06:01:50;100315.88;;;7.65;82.06
85641;BME280;76065;47.182;27.506;2024-02-26T06:04:16;100331.13;;;7.79;81.35
85641;BME280;76065;47.182;27.506;2024-02-26T06:06:44;100318.78;;;7.78;81.82
85641;BME280;76065;47.182;27.506;2024-02-26T06:09:11;100330.81;;;8.01;80.73
85641;BME280;76065;47.182;27.506;2024-02-26T06:11:37;100325.06;;;8.28;79.56
85641;BME280;76065;47.182;27.506;2024-02-26T06:14:02;100325.81;;;8.49;78.55
85641;BME280;76065;47.182;27.506;2024-02-26T06:16:28;100319.88;;;8.57;78.06
85641;BME280;76065;47.182;27.506;2024-02-26T06:18:53;100315.59;;;8.51;77.89
85641;BME280;76065;47.182;27.506;2024-02-26T06:21:19;100323.06;;;8.59;77.77
85641;BME280;76065;47.182;27.506;2024-02-26T06:23:45;100327.09;;;8.61;77.70
85641;BME280;76065;47.182;27.506;2024-02-26T06:26:10;100320.06;;;8.70;77.15
85641;BME280;76065;47.182;27.506;2024-02-26T06:28:36;100336.91;;;8.81;77.63
85641;BME280;76065;47.182;27.506;2024-02-26T06:31:02;100341.22;;;9.21;76.14
85641;BME280;76065;47.182;27.506;2024-02-26T06:33:28;100333.28;;;10.82;70.73
85641;BME280;76065;47.182;27.506;2024-02-26T06:35:53;100338.56;;;12.30;64.73
85641;BME280;76065;47.182;27.506;2024-02-26T06:38:19;100344.75;;;12.94;62.90
85641;BME280;76065;47.182;27.506;2024-02-26T06:40:45;100341.69;;;13.23;59.72
85641;BME280;76065;47.182;27.506;2024-02-26T06:43:11;100342.13;;;13.38;59.73
85641;BME280;76065;47.182;27.506;2024-02-26T06:45:36;100333.50;;;12.64;61.23
85641;BME280;76065;47.182;27.506;2024-02-26T06:48:02;100328.81;;;12.70;60.65
85641;BME280;76065;47.182;27.506;2024-02-26T06:50:28;100337.63;;;13.11;59.09
85641;BME280;76065;47.182;27.506;2024-02-26T06:52:53;100345.75;;;12.48;61.67
85641;BME280;76065;47.182;27.506;2024-02-26T06:55:19;100345.66;;;11.85;63.47
85641;BME280;76065;47.182;27.506;2024-02-26T06:57:44;100355.59;;;11.39;65.10
85641;BME280;76065;47.182;27.506;2024-02-26T07:00:10;100352.91;;;11.20;66.56
85641;BME280;76065;47.182;27.506;2024-02-26T07:02:40;100344.00;;;10.87;66.86
85641;BME280;76065;47.182;27.506;2024-02-26T07:05:06;100357.38;;;10.73;67.82
85641;BME280;76065;47.182;27.506;2024-02-26T07:07:32;100357.16;;;10.70;67.32
85641;BME280;76065;47.182;27.506;2024-02-26T07:09:57;100350.22;;;10.64;68.40
85641;BME280;76065;47.182;27.506;2024-02-26T07:12:23;100356.47;;;10.59;68.99
85641;BME280;76065;47.182;27.506;2024-02-26T07:14:49;100358.44;;;10.54;67.85
85641;BME280;76065;47.182;27.506;2024-02-26T07:17:16;100362.59;;;10.46;68.59
85641;BME280;76065;47.182;27.506;2024-02-26T07:19:42;100357.75;;;10.43;69.30
85641;BME280;76065;47.182;27.506;2024-02-26T07:22:08;100376.78;;;10.52;68.25
85641;BME280;76065;47.182;27.506;2024-02-26T07:24:34;100363.13;;;10.43;68.77
85641;BME280;76065;47.182;27.506;2024-02-26T07:26:59;100382.47;;;10.50;68.24
85641;BME280;76065;47.182;27.506;2024-02-26T07:29:25;100375.28;;;10.41;68.53
85641;BME280;76065;47.182;27.506;2024-02-26T07:31:50;100372.03;;;10.44;67.72
85641;BME280;76065;47.182;27.506;2024-02-26T07:34:16;100379.47;;;10.52;68.05
85641;BME280;76065;47.182;27.506;2024-02-26T07:36:42;100373.22;;;10.56;68.15
85641;BME280;76065;47.182;27.506;2024-02-26T07:39:08;100355.09;;;10.62;67.21
85641;BME280;76065;47.182;27.506;2024-02-26T07:41:33;100358.78;;;10.71;67.17
85641;BME280;76065;47.182;27.506;2024-02-26T07:43:59;100349.56;;;10.72;66.43
85641;BME280;76065;47.182;27.506;2024-02-26T07:46:25;100357.22;;;10.84;66.20
85641;BME280;76065;47.182;27.506;2024-02-26T07:48:50;100353.69;;;11.07;65.82
85641;BME280;76065;47.182;27.506;2024-02-26T07:51:16;100365.59;;;11.38;65.79
85641;BME280;76065;47.182;27.506;2024-02-26T07:53:42;100371.94;;;11.61;64.30
85641;BME280;76065;47.182;27.506;2024-02-26T07:56:09;100370.41;;;11.73;63.74
85641;BME280;76065;47.182;27.506;2024-02-26T07:58:35;100360.63;;;11.78;63.63
85641;BME280;76065;47.182;27.506;2024-02-26T08:01:00;100368.16;;;11.94;62.28
85641;BME280;76065;47.182;27.506;2024-02-26T08:03:26;100369.56;;;12.33;61.82
85641;BME280;76065;47.182;27.506;2024-02-26T08:05:52;100360.38;;;12.34;60.83
85641;BME280;76065;47.182;27.506;2024-02-26T08:08:18;100362.06;;;12.57;59.57
85641;BME280;76065;47.182;27.506;2024-02-26T08:10:43;100359.72;;;13.80;55.84
85641;BME280;76065;47.182;27.506;2024-02-26T08:13:09;100360.06;;;14.18;54.77
85641;BME280;76065;47.182;27.506;2024-02-26T08:15:35;100364.78;;;14.35;53.19
85641;BME280;76065;47.182;27.506;2024-02-26T08:18:03;100364.81;;;15.89;48.98
85641;BME280;76065;47.182;27.506;2024-02-26T08:20:29;100347.91;;;17.22;46.06
85641;BME280;76065;47.182;27.506;2024-02-26T08:22:55;100356.53;;;17.24;44.86
85641;BME280;76065;47.182;27.506;2024-02-26T08:25:22;100336.91;;;16.77;45.93
85641;BME280;76065;47.182;27.506;2024-02-26T08:27:47;100346.03;;;15.67;48.63
85641;BME280;76065;47.182;27.506;2024-02-26T08:30:16;100354.53;;;15.40;50.42
85641;BME280;76065;47.182;27.506;2024-02-26T08:32:48;100353.81;;;16.24;47.79
85641;BME280;76065;47.182;27.506;2024-02-26T08:35:14;100351.31;;;17.52;44.32
85641;BME280;76065;47.182;27.506;2024-02-26T08:37:40;100347.59;;;18.01;43.41
85641;BME280;76065;47.182;27.506;2024-02-26T08:40:06;100330.09;;;17.45;43.81
85641;BME280;76065;47.182;27.506;2024-02-26T08:42:32;100357.34;;;17.04;45.01
85641;BME280;76065;47.182;27.506;2024-02-26T08:44:58;100339.97;;;16.37;46.94
85641;BME280;76065;47.182;27.506;2024-02-26T08:47:26;100341.66;;;16.59;46.41
85641;BME280;76065;47.182;27.506;2024-02-26T08:49:53;100352.22;;;16.52;46.29
85641;BME280;76065;47.182;27.506;2024-02-26T08:52:19;100342.59;;;16.63;46.73
85641;BME280;76065;47.182;27.506;2024-02-26T08:54:45;100353.03;;;17.03;45.27
85641;BME280;76065;47.182;27.506;2024-02-26T08:57:10;100350.63;;;16.60;46.20
85641;BME280;76065;47.182;27.506;2024-02-26T08:59:36;100359.41;;;15.81;48.97
85641;BME280;76065;47.182;27.506;2024-02-26T09:02:02;100352.44;;;14.94;50.69
85641;BME280;76065;47.182;27.506;2024-02-26T09:04:27;100356.72;;;14.21;53.07
85641;BME280;76065;47.182;27.506;2024-02-26T09:06:53;100361.72;;;13.97;53.96
85641;BME280;76065;47.182;27.506;2024-02-26T09:09:19;100365.69;;;13.91;54.52
85641;BME280;76065;47.182;27.506;2024-02-26T09:11:45;100344.13;;;13.86;54.73
85641;BME280;76065;47.182;27.506;2024-02-26T09:14:12;100353.91;;;13.95;54.97
85641;BME280;76065;47.182;27.506;2024-02-26T09:16:37;100348.06;;;13.71;54.08
85641;BME280;76065;47.182;27.506;2024-02-26T09:19:03;100345.75;;;13.56;54.75
85641;BME280;76065;47.182;27.506;2024-02-26T09:21:29;100357.31;;;13.48;55.32
85641;BME280;76065;47.182;27.506;2024-02-26T09:23:54;100353.00;;;13.47;55.31
85641;BME280;76065;47.182;27.506;2024-02-26T09:26:20;100343.53;;;13.36;55.59
85641;BME280;76065;47.182;27.506;2024-02-26T09:28:45;100358.94;;;13.57;55.08
85641;BME280;76065;47.182;27.506;2024-02-26T09:31:11;100301.34;;;13.35;54.36
85641;BME280;76065;47.182;27.506;2024-02-26T09:33:37;100350.78;;;13.49;56.37
85641;BME280;76065;47.182;27.506;2024-02-26T09:36:04;100355.56;;;13.30;57.08
85641;BME280;76065;47.182;27.506;2024-02-26T09:38:30;100341.03;;;13.03;58.22
85641;BME280;76065;47.182;27.506;2024-02-26T09:40:58;100362.25;;;12.96;58.75
85641;BME280;76065;47.182;27.506;2024-02-26T09:43:26;100354.84;;;12.66;60.15
85641;BME280;76065;47.182;27.506;2024-02-26T09:45:54;100336.63;;;12.72;59.66
85641;BME280;76065;47.182;27.506;2024-02-26T09:48:22;100347.50;;;12.80;60.27
85641;BME280;76065;47.182;27.506;2024-02-26T09:50:49;100350.47;;;12.92;60.01
85641;BME280;76065;47.182;27.506;2024-02-26T09:53:14;100340.44;;;12.93;59.99
85641;BME280;76065;47.182;27.506;2024-02-26T09:55:42;100337.22;;;13.04;59.48
85641;BME280;76065;47.182;27.506;2024-02-26T09:58:08;100344.28;;;12.92;59.94
85641;BME280;76065;47.182;27.506;2024-02-26T10:00:38;100337.81;;;12.79;60.43
85641;BME280;76065;47.182;27.506;2024-02-26T10:03:09;100337.09;;;12.87;61.31
85641;BME280;76065;47.182;27.506;2024-02-26T10:05:39;100325.03;;;12.93;60.01
85641;BME280;76065;47.182;27.506;2024-02-26T10:08:06;100323.13;;;12.94;60.20
85641;BME280;76065;47.182;27.506;2024-02-26T10:10:33;100333.13;;;13.29;60.16
85641;BME280;76065;47.182;27.506;2024-02-26T10:12:59;100319.94;;;13.28;57.53
85641;BME280;76065;47.182;27.506;2024-02-26T10:15:26;100327.91;;;13.55;57.70
85641;BME280;76065;47.182;27.506;2024-02-26T10:17:52;100324.91;;;13.65;56.38
85641;BME280;76065;47.182;27.506;2024-02-26T10:20:18;100331.25;;;13.60;56.17
85641;BME280;76065;47.182;27.506;2024-02-26T10:22:47;100329.53;;;13.65;57.28
85641;BME280;76065;47.182;27.506;2024-02-26T10:25:12;100331.44;;;13.64;56.47
85641;BME280;76065;47.182;27.506;2024-02-26T10:27:40;100305.16;;;13.65;55.82
85641;BME280;76065;47.182;27.506;2024-02-26T10:30:20;100315.34;;;13.90;55.52
85641;BME280;76065;47.182;27.506;2024-02-26T10:32:51;100318.91;;;14.07;55.52
85641;BME280;76065;47.182;27.506;2024-02-26T10:35:18;100313.94;;;14.01;54.19
85641;BME280;76065;47.182;27.506;2024-02-26T10:37:46;100305.72;;;14.15;54.27
85641;BME280;76065;47.182;27.506;2024-02-26T10:40:13;100287.38;;;14.12;52.23
85641;BME280;76065;47.182;27.506;2024-02-26T10:42:39;100297.28;;;14.16;51.17
85641;BME280;76065;47.182;27.506;2024-02-26T10:45:09;100306.28;;;14.42;48.46
85641;BME280;76065;47.182;27.506;2024-02-26T10:47:36;100294.53;;;14.56;49.75
85641;BME280;76065;47.182;27.506;2024-02-26T10:50:03;100299.91;;;14.47;47.39
85641;BME280;76065;47.182;27.506;2024-02-26T10:52:35;100291.47;;;14.48;48.11
85641;BME280;76065;47.182;27.506;2024-02-26T10:55:01;100298.22;;;14.68;48.30
85641;BME280;76065;47.182;27.506;2024-02-26T10:57:31;100285.44;;;14.77;47.17
85641;BME280;76065;47.182;27.506;2024-02-26T10:59:59;100297.88;;;14.87;47.32
85641;BME280;76065;47.182;27.506;2024-02-26T11:02:25;100294.69;;;14.93;46.58
85641;BME280;76065;47.182;27.506;2024-02-26T11:04:52;100289.25;;;15.11;46.63
85641;BME280;76065;47.182;27.506;2024-02-26T11:07:20;100283.03;;;15.19;46.09
85641;BME280;76065;47.182;27.506;2024-02-26T11:09:46;100283.03;;;15.19;46.26
85641;BME280;76065;47.182;27.506;2024-02-26T11:12:17;100297.97;;;15.42;45.48
85641;BME280;76065;47.182;27.506;2024-02-26T11:14:46;100294.94;;;15.43;44.78
85641;BME280;76065;47.182;27.506;2024-02-26T11:17:12;100280.22;;;15.62;42.43
85641;BME280;76065;47.182;27.506;2024-02-26T11:19:39;100294.72;;;16.12;41.58
85641;BME280;76065;47.182;27.506;2024-02-26T11:22:07;100283.66;;;16.17;40.43
85641;BME280;76065;47.182;27.506;2024-02-26T11:24:34;100277.53;;;16.00;41.36
85641;BME280;76065;47.182;27.506;2024-02-26T11:27:02;100280.88;;;15.59;42.12
85641;BME280;76065;47.182;27.506;2024-02-26T11:29:38;100280.09;;;15.41;43.07
85641;BME280;76065;47.182;27.506;2024-02-26T11:32:05;100288.13;;;15.20;42.90
85641;BME280;76065;47.182;27.506;2024-02-26T11:34:31;100269.47;;;15.02;42.84
85641;BME280;76065;47.182;27.506;2024-02-26T11:36:57;100272.03;;;15.07;42.87
85641;BME280;76065;47.182;27.506;2024-02-26T11:39:24;100268.34;;;15.03;43.05
85641;BME280;76065;47.182;27.506;2024-02-26T11:41:50;100269.31;;;15.07;42.90
85641;BME280;76065;47.182;27.506;2024-02-26T11:44:28;100259.41;;;15.02;42.21
85641;BME280;76065;47.182;27.506;2024-02-26T11:46:56;100263.22;;;15.10;43.13
85641;BME280;76065;47.182;27.506;2024-02-26T11:51:57;100255.09;;;15.10;42.39
85641;BME280;76065;47.182;27.506;2024-02-26T11:54:38;100273.09;;;15.31;42.49
85641;BME280;76065;47.182;27.506;2024-02-26T11:57:04;100266.72;;;15.27;42.61
85641;BME280;76065;47.182;27.506;2024-02-26T11:59:39;100264.81;;;15.28;43.24
85641;BME280;76065;47.182;27.506;2024-02-26T12:02:07;100251.56;;;15.26;43.41
85641;BME280;76065;47.182;27.506;2024-02-26T12:04:33;100253.47;;;15.26;43.20
85641;BME280;76065;47.182;27.506;2024-02-26T12:07:02;100263.34;;;15.30;42.89
85641;BME280;76065;47.182;27.506;2024-02-26T12:09:39;100267.84;;;15.26;43.22
85641;BME280;76065;47.182;27.506;2024-02-26T12:12:06;100261.91;;;15.33;43.38
85641;BME280;76065;47.182;27.506;2024-02-26T12:14:40;100249.41;;;15.49;42.96
85641;BME280;76065;47.182;27.506;2024-02-26T12:17:24;100272.72;;;15.67;42.29
85641;BME280;76065;47.182;27.506;2024-02-26T12:19:50;100255.25;;;15.77;41.77
85641;BME280;76065;47.182;27.506;2024-02-26T12:22:17;100264.81;;;15.83;41.88
85641;BME280;76065;47.182;27.506;2024-02-26T12:24:43;100246.91;;;15.82;41.82
85641;BME280;76065;47.182;27.506;2024-02-26T12:27:09;100252.53;;;16.06;41.70
85641;BME280;76065;47.182;27.506;2024-02-26T12:29:35;100229.78;;;16.19;40.48
85641;BME280;76065;47.182;27.506;2024-02-26T12:32:01;100255.22;;;16.15;40.01
85641;BME280;76065;47.182;27.506;2024-02-26T12:34:28;100245.38;;;16.02;40.35
85641;BME280;76065;47.182;27.506;2024-02-26T12:36:54;100242.38;;;15.95;40.35
85641;BME280;76065;47.182;27.506;2024-02-26T12:39:20;100250.56;;;15.86;40.88
85641;BME280;76065;47.182;27.506;2024-02-26T12:41:46;100240.34;;;15.91;41.22
85641;BME280;76065;47.182;27.506;2024-02-26T12:44:17;100239.22;;;15.93;41.02